createdAt,value
2022-10-23T04:46:01.755Z,1001.01
2022-10-23T04:47:02.746Z,1001.00
2022-10-23T04:48:02.723Z,1000.99
2022-10-23T04:49:02.720Z,1000.98
2022-10-23T04:50:02.708Z,1000.97
2022-10-23T04:51:02.713Z,1000.97
2022-10-23T04:52:02.688Z,1000.96
2022-10-23T04:53:02.685Z,1000.96
2022-10-23T04:54:02.665Z,1000.96
2022-10-23T04:55:02.661Z,1000.97
2022-10-23T04:56:02.662Z,1000.96
2022-10-23T04:57:02.669Z,1000.95
2022-10-23T04:58:02.631Z,1000.92
2022-10-23T04:59:02.703Z,1000.89
2022-10-23T05:00:02.621Z,1000.86
2022-10-23T05:01:02.751Z,1000.82
2022-10-23T05:02:02.590Z,1000.79
2022-10-23T05:03:02.576Z,1000.77
2022-10-23T05:04:02.562Z,1000.74
2022-10-23T05:05:02.565Z,1000.73
2022-10-23T05:06:02.598Z,1000.72
2022-10-23T05:07:02.582Z,1000.70
2022-10-23T05:08:02.518Z,1000.68
2022-10-23T05:09:02.520Z,1000.66
2022-10-23T05:10:02.540Z,1000.64
2022-10-23T05:11:02.556Z,1000.64
2022-10-23T05:12:02.523Z,1000.64
2022-10-23T05:13:02.481Z,1000.64
2022-10-23T05:14:02.481Z,1000.66
2022-10-23T05:15:02.492Z,1000.67
2022-10-23T05:16:02.488Z,1000.69
2022-10-23T05:17:02.485Z,1000.71
2022-10-23T05:18:02.430Z,1000.73
2022-10-23T05:19:02.412Z,1000.74
2022-10-23T05:20:02.413Z,1000.75
2022-10-23T05:21:02.426Z,1000.76
2022-10-23T05:22:02.383Z,1000.74
2022-10-23T05:23:02.376Z,1000.73
2022-10-23T05:24:02.501Z,1000.70
2022-10-23T05:25:02.386Z,1000.68
2022-10-23T05:26:02.368Z,1000.67
2022-10-23T05:27:02.389Z,1000.68
2022-10-23T05:28:02.317Z,1000.67
2022-10-23T05:29:02.375Z,1000.68
2022-10-23T05:30:02.397Z,1000.69
2022-10-23T05:31:02.376Z,1000.70
2022-10-23T05:32:02.268Z,1000.70
2022-10-23T05:33:02.267Z,1000.70
2022-10-23T05:34:02.244Z,1000.69
2022-10-23T05:35:02.246Z,1000.67
2022-10-23T05:36:02.241Z,1000.64
2022-10-23T05:37:02.218Z,1000.61
2022-10-23T05:38:02.212Z,1000.59
2022-10-23T05:39:02.193Z,1000.56
2022-10-23T05:40:02.184Z,1000.54
2022-10-23T05:41:02.191Z,1000.53
2022-10-23T05:42:02.158Z,1000.53
2022-10-23T05:43:02.152Z,1000.54
2022-10-23T05:44:02.149Z,1000.53
2022-10-23T05:45:02.132Z,1000.54
2022-10-23T05:46:02.128Z,1000.54
2022-10-23T05:47:02.107Z,1000.55
2022-10-23T05:48:11.079Z,1000.55
2022-10-23T05:49:02.108Z,1000.55
2022-10-23T05:50:02.072Z,1000.54
2022-10-23T05:51:02.081Z,1000.54
2022-10-23T05:52:02.052Z,1000.51
2022-10-23T05:53:02.046Z,1000.52
2022-10-23T05:54:02.029Z,1000.50
2022-10-23T05:55:02.023Z,1000.50
2022-10-23T05:56:02.023Z,1000.50
2022-10-23T05:57:02.000Z,1000.47
2022-10-23T05:58:01.984Z,1000.45
2022-10-23T05:59:01.977Z,1000.44
2022-10-23T06:00:01.964Z,1000.44
2022-10-23T06:01:02.007Z,1000.44
2022-10-23T06:02:02.027Z,1000.44
2022-10-23T06:03:01.940Z,1000.43
2022-10-23T06:04:01.928Z,1000.42
2022-10-23T06:05:01.915Z,1000.42
2022-10-23T06:06:01.898Z,1000.43
2022-10-23T06:07:01.906Z,1000.44
2022-10-23T06:08:01.880Z,1000.44
2022-10-23T06:09:01.871Z,1000.45
2022-10-23T06:10:01.858Z,1000.46
2022-10-23T06:11:01.853Z,1000.47
2022-10-23T06:12:01.852Z,1000.47
2022-10-23T06:13:01.824Z,1000.46
2022-10-23T06:14:01.831Z,1000.47
2022-10-23T06:15:01.807Z,1000.49
2022-10-23T06:16:01.790Z,1000.48
2022-10-23T06:17:01.792Z,1000.48
2022-10-23T06:18:01.768Z,1000.49
2022-10-23T06:19:01.764Z,1000.48
2022-10-23T06:20:01.755Z,1000.45
2022-10-23T06:21:01.745Z,1000.44
2022-10-23T06:22:01.802Z,1000.42
2022-10-23T06:23:01.720Z,1000.39
2022-10-23T06:24:01.706Z,1000.42
2022-10-23T06:25:01.697Z,1000.43
2022-10-23T06:26:01.687Z,1000.42
2022-10-23T06:27:01.686Z,1000.41
2022-10-23T06:28:01.661Z,1000.43
2022-10-23T06:29:01.653Z,1000.42
2022-10-23T06:30:01.640Z,1000.41
2022-10-23T06:31:01.632Z,1000.40
2022-10-23T06:32:01.626Z,1000.36
2022-10-23T06:33:04.533Z,1000.33
2022-10-23T06:34:01.594Z,1000.30
2022-10-23T06:35:01.592Z,1000.28
2022-10-23T06:36:01.580Z,1000.27
2022-10-23T06:37:01.582Z,1000.26
2022-10-23T06:38:01.553Z,1000.25
2022-10-23T06:39:01.562Z,1000.24
2022-10-23T06:40:01.606Z,1000.24
2022-10-23T06:41:01.528Z,1000.23
2022-10-23T06:42:01.520Z,1000.25
2022-10-23T06:43:01.500Z,1000.27
2022-10-23T06:44:01.486Z,1000.27
2022-10-23T06:45:04.906Z,1000.26
2022-10-23T06:46:01.468Z,1000.25
2022-10-23T06:47:01.477Z,1000.24
2022-10-23T06:48:01.445Z,1000.26
2022-10-23T06:49:01.438Z,1000.29
2022-10-23T06:50:01.423Z,1000.30
2022-10-23T06:51:01.418Z,1000.29
2022-10-23T06:52:01.416Z,1000.26
2022-10-23T06:53:01.395Z,1000.24
2022-10-23T06:54:01.384Z,1000.24
2022-10-23T06:55:01.377Z,1000.23
2022-10-23T06:56:01.363Z,1000.23
2022-10-23T06:57:01.368Z,1000.22
2022-10-23T06:58:01.340Z,1000.21
2022-10-23T06:59:01.331Z,1000.19
2022-10-23T07:00:01.321Z,1000.15
2022-10-23T07:01:01.473Z,1000.11
2022-10-23T07:02:01.314Z,1000.08
2022-10-23T07:03:01.301Z,1000.06
2022-10-23T07:04:01.277Z,1000.05
2022-10-23T07:05:01.268Z,1000.05
2022-10-23T07:06:01.259Z,1000.04
2022-10-23T07:07:01.262Z,1000.06
2022-10-23T07:08:01.233Z,1000.09
2022-10-23T07:09:01.226Z,1000.12
2022-10-23T07:10:01.316Z,1000.13
2022-10-23T07:11:01.206Z,1000.13
2022-10-23T07:12:01.204Z,1000.12
2022-10-23T07:13:01.418Z,1000.12
2022-10-23T07:14:01.170Z,1000.12
2022-10-23T07:15:01.164Z,1000.11
2022-10-23T07:16:01.155Z,1000.11
2022-10-23T07:17:01.155Z,1000.10
2022-10-23T07:18:01.132Z,1000.09
2022-10-23T07:19:01.158Z,1000.10
2022-10-23T07:20:01.112Z,1000.12
2022-10-23T07:21:01.097Z,1000.14
2022-10-23T07:22:01.106Z,1000.15
2022-10-23T07:23:01.088Z,1000.14
2022-10-23T07:24:01.071Z,1000.14
2022-10-23T07:25:01.063Z,1000.14
2022-10-23T07:26:01.050Z,1000.14
2022-10-23T07:27:01.052Z,1000.15
2022-10-23T07:28:01.029Z,1000.12
2022-10-23T07:29:01.031Z,1000.10
2022-10-23T07:30:01.008Z,1000.10
2022-10-23T07:31:00.996Z,1000.12
2022-10-23T07:32:01.009Z,1000.11
2022-10-23T07:33:00.971Z,1000.10
2022-10-23T07:34:00.965Z,1000.09
2022-10-23T07:35:00.999Z,1000.09
2022-10-23T07:36:00.943Z,1000.10
2022-10-23T07:37:00.948Z,1000.09
2022-10-23T07:38:00.927Z,1000.08
2022-10-23T07:39:00.910Z,1000.06
2022-10-23T07:40:00.906Z,1000.04
2022-10-23T07:41:00.889Z,1000.04
2022-10-23T07:42:00.894Z,1000.03
2022-10-23T07:43:00.868Z,1000.03
2022-10-23T07:44:00.860Z,1000.03
2022-10-23T07:45:00.844Z,1000.04
2022-10-23T07:46:00.842Z,1000.04
2022-10-23T07:47:00.841Z,1000.03
2022-10-23T07:48:00.820Z,1000.01
2022-10-23T07:49:00.803Z,1000.00
2022-10-23T07:50:00.799Z,999.99
2022-10-23T07:51:00.785Z,1000.01
2022-10-23T07:52:00.903Z,999.99
2022-10-23T07:53:00.766Z,999.97
2022-10-23T07:54:00.757Z,999.97
2022-10-23T07:55:00.749Z,999.96
2022-10-23T07:56:00.736Z,999.96
2022-10-23T07:57:00.734Z,999.97
2022-10-23T07:58:00.717Z,999.95
2022-10-23T07:59:00.697Z,999.95
2022-10-23T08:00:00.691Z,999.96
2022-10-23T08:01:00.775Z,999.96
2022-10-23T08:02:00.805Z,999.97
2022-10-23T08:03:00.656Z,999.93
2022-10-23T08:04:00.655Z,999.92
2022-10-23T08:05:00.636Z,999.91
2022-10-23T08:06:00.630Z,999.88
2022-10-23T08:07:00.628Z,999.84
2022-10-23T08:08:00.610Z,999.81
2022-10-23T08:09:03.763Z,999.80
2022-10-23T08:10:00.593Z,999.78
2022-10-23T08:11:00.590Z,999.76
2022-10-23T08:12:00.570Z,999.74
2022-10-23T08:13:00.549Z,999.76
2022-10-23T08:14:00.542Z,999.80
2022-10-23T08:15:00.534Z,999.84
2022-10-23T08:16:00.535Z,999.86
2022-10-23T08:17:03.548Z,999.89
2022-10-23T08:18:00.505Z,999.89
2022-10-23T08:19:00.488Z,999.89
2022-10-23T08:20:00.489Z,999.89
2022-10-23T08:21:00.479Z,999.89
2022-10-23T08:22:00.462Z,999.88
2022-10-23T08:23:00.450Z,999.86
2022-10-23T08:24:00.441Z,999.86
2022-10-23T08:25:00.422Z,999.85
2022-10-23T08:26:00.425Z,999.84
2022-10-23T08:27:00.416Z,999.84
2022-10-23T08:28:04.178Z,999.84
2022-10-23T08:29:00.401Z,999.85
2022-10-23T08:30:00.375Z,999.86
2022-10-23T08:31:00.360Z,999.85
2022-10-23T08:32:00.370Z,999.84
2022-10-23T08:33:00.342Z,999.85
2022-10-23T08:34:00.340Z,999.85
2022-10-23T08:35:00.318Z,999.85
2022-10-23T08:36:00.318Z,999.85
2022-10-23T08:37:00.311Z,999.85
2022-10-23T08:38:00.291Z,999.86
2022-10-23T08:39:00.303Z,999.86
2022-10-23T08:40:00.272Z,999.85
2022-10-23T08:41:00.266Z,999.83
2022-10-23T08:42:00.344Z,999.82
2022-10-23T08:43:00.235Z,999.80
2022-10-23T08:44:00.227Z,999.79
2022-10-23T08:45:00.212Z,999.77
2022-10-23T08:46:00.207Z,999.76
2022-10-23T08:47:00.212Z,999.76
2022-10-23T08:48:00.198Z,999.76
2022-10-23T08:49:00.173Z,999.71
2022-10-23T08:50:00.177Z,999.72
2022-10-23T08:51:00.151Z,999.71
2022-10-23T08:52:00.154Z,999.73
2022-10-23T08:53:00.127Z,999.72
2022-10-23T08:54:00.141Z,999.72
2022-10-23T08:55:00.104Z,999.70
2022-10-23T08:56:00.098Z,999.68
2022-10-23T08:57:00.105Z,999.66
2022-10-23T08:58:00.076Z,999.66
2022-10-23T08:59:00.068Z,999.67
2022-10-23T09:00:00.067Z,999.67
2022-10-23T09:01:00.243Z,999.64
2022-10-23T09:02:00.264Z,999.64
2022-10-23T09:03:00.032Z,999.63
2022-10-23T09:04:00.016Z,999.61
2022-10-23T09:05:00.006Z,999.58
2022-10-23T09:05:59.996Z,999.57
2022-10-23T09:07:00.089Z,999.54
2022-10-23T09:07:59.974Z,999.54
2022-10-23T09:08:59.956Z,999.54
2022-10-23T09:09:59.995Z,999.52
2022-10-23T09:10:59.948Z,999.51
2022-10-23T09:11:59.947Z,999.49
2022-10-23T09:12:59.924Z,999.48
2022-10-23T09:13:59.908Z,999.47
2022-10-23T09:14:59.889Z,999.44
2022-10-23T09:15:59.890Z,999.42
2022-10-23T09:16:59.883Z,999.40
2022-10-23T09:17:59.871Z,999.40
2022-10-23T09:18:59.848Z,999.38
2022-10-23T09:19:59.862Z,999.37
2022-10-23T09:20:59.833Z,999.39
2022-10-23T09:21:59.848Z,999.37
2022-10-23T09:22:59.863Z,999.37
2022-10-23T09:23:59.817Z,999.36
2022-10-23T09:24:59.819Z,999.38
2022-10-23T09:25:59.817Z,999.37
2022-10-23T09:26:59.824Z,999.36
2022-10-23T09:28:01.643Z,999.34
2022-10-23T09:28:59.745Z,999.33
2022-10-23T09:29:59.739Z,999.32
2022-10-23T09:30:59.723Z,999.32
2022-10-23T09:31:59.730Z,999.31
2022-10-23T09:32:59.703Z,999.31
2022-10-23T09:33:59.706Z,999.30
2022-10-23T09:34:59.677Z,999.29
2022-10-23T09:35:59.680Z,999.29
2022-10-23T09:36:59.689Z,999.30
2022-10-23T09:37:59.653Z,999.31
2022-10-23T09:38:59.640Z,999.32
2022-10-23T09:39:59.642Z,999.30
2022-10-23T09:40:59.631Z,999.31
2022-10-23T09:41:59.637Z,999.30
2022-10-23T09:42:59.691Z,999.32
2022-10-23T09:43:59.610Z,999.34
2022-10-23T09:44:59.599Z,999.33
2022-10-23T09:45:59.572Z,999.33
2022-10-23T09:46:59.563Z,999.32
2022-10-23T09:47:59.561Z,999.31
2022-10-23T09:49:00.960Z,999.31
2022-10-23T09:49:59.528Z,999.30
2022-10-23T09:50:59.512Z,999.29
2022-10-23T09:51:59.511Z,999.29
2022-10-23T09:52:59.504Z,999.29
2022-10-23T09:53:59.485Z,999.27
2022-10-23T09:54:59.470Z,999.26
2022-10-23T09:55:59.468Z,999.24
2022-10-23T09:56:59.457Z,999.20
2022-10-23T09:57:59.458Z,999.16
2022-10-23T09:58:59.430Z,999.15
2022-10-23T09:59:59.426Z,999.12
2022-10-23T10:00:59.501Z,999.10
2022-10-23T10:01:59.563Z,999.09
2022-10-23T10:02:59.405Z,999.08
2022-10-23T10:03:59.381Z,999.05
2022-10-23T10:04:59.366Z,999.05
2022-10-23T10:05:59.368Z,999.01
2022-10-23T10:06:59.350Z,999.01
2022-10-23T10:07:59.356Z,998.99
2022-10-23T10:08:59.324Z,998.99
2022-10-23T10:09:59.324Z,998.99
2022-10-23T10:10:59.306Z,998.99
2022-10-23T10:11:59.300Z,998.98
2022-10-23T10:12:59.460Z,998.98
2022-10-23T10:13:59.277Z,998.99
2022-10-23T10:14:59.267Z,998.99
2022-10-23T10:15:59.260Z,999.00
2022-10-23T10:16:59.245Z,999.00
2022-10-23T10:17:59.255Z,998.99
2022-10-23T10:18:59.224Z,998.96
2022-10-23T10:20:03.675Z,998.94
2022-10-23T10:20:59.212Z,998.91
2022-10-23T10:21:59.197Z,998.90
2022-10-23T10:22:59.198Z,998.89
2022-10-23T10:23:59.173Z,998.88
2022-10-23T10:24:59.159Z,998.87
2022-10-23T10:25:59.156Z,998.85
2022-10-23T10:26:59.154Z,998.83
2022-10-23T10:27:59.145Z,998.80
2022-10-23T10:28:59.120Z,998.78
2022-10-23T10:29:59.117Z,998.77
2022-10-23T10:30:59.095Z,998.75
2022-10-23T10:31:59.092Z,998.75
2022-10-23T10:32:59.089Z,998.75
2022-10-23T10:33:59.121Z,998.74
2022-10-23T10:34:59.056Z,998.73
2022-10-23T10:35:59.088Z,998.71
2022-10-23T10:36:59.037Z,998.69
2022-10-23T10:37:59.050Z,998.68
2022-10-23T10:38:59.012Z,998.67
2022-10-23T10:39:59.009Z,998.67
2022-10-23T10:40:59.058Z,998.66
2022-10-23T10:41:58.984Z,998.66
2022-10-23T10:42:58.985Z,998.64
2022-10-23T10:43:58.967Z,998.61
2022-10-23T10:44:58.989Z,998.59
2022-10-23T10:45:58.943Z,998.57
2022-10-23T10:46:58.928Z,998.56
2022-10-23T10:47:58.941Z,998.53
2022-10-23T10:48:58.909Z,998.56
2022-10-23T10:49:58.919Z,998.56
2022-10-23T10:50:58.888Z,998.58
2022-10-23T10:51:58.884Z,998.59
2022-10-23T10:52:58.902Z,998.58
2022-10-23T10:53:58.859Z,998.57
2022-10-23T10:54:58.842Z,998.54
2022-10-23T10:55:58.903Z,998.52
2022-10-23T10:56:58.845Z,998.51
2022-10-23T10:57:59.929Z,998.49
2022-10-23T10:58:58.801Z,998.47
2022-10-23T10:59:58.798Z,998.46
2022-10-23T11:00:58.900Z,998.48
2022-10-23T11:01:58.934Z,998.47
2022-10-23T11:02:58.771Z,998.43
2022-10-23T11:03:58.749Z,998.40
2022-10-23T11:04:58.735Z,998.36
2022-10-23T11:06:58.717Z,998.29
2022-10-23T11:07:58.729Z,998.24
2022-10-23T11:09:19.226Z,998.21
2022-10-23T11:09:58.691Z,998.16
2022-10-23T11:10:58.670Z,998.14
2022-10-23T11:11:58.664Z,998.15
2022-10-23T11:12:58.665Z,998.15
2022-10-23T11:13:58.642Z,998.12
2022-10-23T11:14:58.624Z,998.11
2022-10-23T11:15:58.618Z,998.10
2022-10-23T11:16:58.629Z,998.09
2022-10-23T11:17:58.615Z,998.08
2022-10-23T11:18:58.581Z,998.06
2022-10-23T11:19:58.584Z,998.04
2022-10-23T11:20:58.558Z,998.02
2022-10-23T11:21:58.554Z,998.00
2022-10-23T11:22:58.559Z,997.99
2022-10-23T11:23:58.596Z,997.97
2022-10-23T11:24:58.532Z,997.97
2022-10-23T11:25:58.519Z,997.93
2022-10-23T11:26:58.499Z,997.91
2022-10-23T11:28:03.354Z,997.87
2022-10-23T11:28:58.484Z,997.84
2022-10-23T11:29:58.469Z,997.81
2022-10-23T11:30:58.455Z,997.80
2022-10-23T11:31:58.451Z,997.78
2022-10-23T11:32:58.446Z,997.77
2022-10-23T11:33:58.428Z,997.77
2022-10-23T11:34:58.421Z,997.75
2022-10-23T11:35:58.405Z,997.75
2022-10-23T11:36:58.400Z,997.75
2022-10-23T11:37:58.393Z,997.73
2022-10-23T11:38:58.383Z,997.68
2022-10-23T11:39:58.358Z,997.63
2022-10-23T11:40:58.351Z,997.57
2022-10-23T11:41:58.339Z,997.55
2022-10-23T11:42:58.349Z,997.53
2022-10-23T11:43:58.318Z,997.52
2022-10-23T11:44:58.307Z,997.51
2022-10-23T11:45:58.291Z,997.52
2022-10-23T11:46:58.287Z,997.54
2022-10-23T11:47:58.290Z,997.56
2022-10-23T11:48:58.376Z,997.57
2022-10-23T11:49:58.255Z,997.59
2022-10-23T11:51:00.295Z,997.58
2022-10-23T11:51:58.232Z,997.58
2022-10-23T11:53:14.657Z,997.56
2022-10-23T11:53:58.211Z,997.56
2022-10-23T11:54:58.207Z,997.53
2022-10-23T11:55:58.186Z,997.52
2022-10-23T11:56:58.184Z,997.49
2022-10-23T11:57:58.178Z,997.49
2022-10-23T11:58:58.164Z,997.48
2022-10-23T11:59:58.138Z,997.44
2022-10-23T12:00:58.222Z,997.39
2022-10-23T12:01:58.168Z,997.34
2022-10-23T12:02:59.095Z,997.30
2022-10-23T12:03:58.101Z,997.26
2022-10-23T12:04:58.123Z,997.21
2022-10-23T12:05:58.093Z,997.19
2022-10-23T12:06:58.073Z,997.17
2022-10-23T12:07:58.068Z,997.18
2022-10-23T12:08:58.055Z,997.21
2022-10-23T12:09:58.034Z,997.25
2022-10-23T12:10:58.022Z,997.26
2022-10-23T12:11:58.018Z,997.24
2022-10-23T12:12:58.054Z,997.21
2022-10-23T12:13:57.991Z,997.16
2022-10-23T12:14:57.984Z,997.13
2022-10-23T12:16:00.746Z,997.10
2022-10-23T12:16:57.960Z,997.07
2022-10-23T12:17:57.945Z,997.06
2022-10-23T12:18:57.958Z,997.05
2022-10-23T12:19:57.923Z,997.05
2022-10-23T12:20:57.922Z,997.05
2022-10-23T12:21:57.904Z,997.04
2022-10-23T12:22:57.904Z,997.03
2022-10-23T12:23:57.895Z,997.03
2022-10-23T12:24:57.871Z,997.01
2022-10-23T12:25:57.867Z,996.98
2022-10-23T12:26:57.849Z,996.95
2022-10-23T12:27:57.841Z,996.92
2022-10-23T12:28:57.854Z,996.89
2022-10-23T12:29:57.817Z,996.84
2022-10-23T12:30:57.814Z,996.80
2022-10-23T12:31:57.792Z,996.76
2022-10-23T12:32:57.792Z,996.73
2022-10-23T12:33:57.796Z,996.72
2022-10-23T12:34:57.767Z,996.70
2022-10-23T12:35:57.766Z,996.68
2022-10-23T12:36:57.745Z,996.65
2022-10-23T12:37:57.737Z,996.64
2022-10-23T12:38:57.738Z,996.66
2022-10-23T12:39:57.708Z,996.65
2022-10-23T12:40:57.703Z,996.69
2022-10-23T12:41:57.695Z,996.79
2022-10-23T12:42:57.683Z,996.84
2022-10-23T12:43:57.683Z,996.78
2022-10-23T12:44:57.657Z,996.68
2022-10-23T12:45:57.667Z,996.70
2022-10-23T12:46:57.662Z,996.73
2022-10-23T12:47:57.624Z,996.76
2022-10-23T12:48:57.624Z,996.73
2022-10-23T12:49:57.604Z,996.60
2022-10-23T12:50:57.609Z,996.65
2022-10-23T12:51:57.583Z,996.60
2022-10-23T12:52:57.577Z,996.60
2022-10-23T12:53:57.574Z,996.61
2022-10-23T12:54:57.550Z,996.59
2022-10-23T12:55:57.586Z,996.54
2022-10-23T12:56:57.533Z,996.45
2022-10-23T12:57:57.548Z,996.40
2022-10-23T12:58:57.521Z,996.43
2022-10-23T12:59:57.491Z,996.47
2022-10-23T13:00:57.607Z,996.39
2022-10-23T13:01:57.653Z,996.38
2022-10-23T13:02:57.475Z,996.34
2022-10-23T13:03:57.470Z,996.30
2022-10-23T13:04:57.455Z,996.33
2022-10-23T13:05:57.432Z,996.31
2022-10-23T13:06:57.424Z,996.27
2022-10-23T13:07:57.465Z,996.22
2022-10-23T13:08:57.422Z,996.22
2022-10-23T13:09:57.395Z,996.17
2022-10-23T13:10:57.386Z,996.09
2022-10-23T13:11:57.367Z,996.02
2022-10-23T13:12:57.396Z,995.98
2022-10-23T13:13:57.346Z,996.03
2022-10-23T13:14:57.357Z,995.99
2022-10-23T13:15:57.318Z,996.00
2022-10-23T13:16:57.312Z,996.00
2022-10-23T13:17:57.300Z,995.96
2022-10-23T13:18:57.291Z,995.90
2022-10-23T13:19:57.294Z,995.85
2022-10-23T13:20:57.366Z,995.83
2022-10-23T13:21:57.255Z,995.80
2022-10-23T13:23:00.298Z,995.74
2022-10-23T13:23:57.236Z,995.70
2022-10-23T13:24:57.239Z,995.69
2022-10-23T13:25:57.207Z,995.68
2022-10-23T13:26:57.221Z,995.65
2022-10-23T13:27:57.189Z,995.61
2022-10-23T13:28:57.189Z,995.58
2022-10-23T13:29:57.181Z,995.58
2022-10-23T13:30:57.166Z,995.56
2022-10-23T13:31:57.146Z,995.56
2022-10-23T13:32:57.214Z,995.58
2022-10-23T13:33:57.122Z,995.59
2022-10-23T13:35:10.258Z,995.62
2022-10-23T13:35:57.104Z,995.65
2022-10-23T13:36:57.093Z,995.65
2022-10-23T13:37:57.078Z,995.67
2022-10-23T13:38:57.073Z,995.66
2022-10-23T13:39:57.072Z,995.69
2022-10-23T13:40:57.048Z,995.70
2022-10-23T13:41:57.045Z,995.71
2022-10-23T13:42:57.033Z,995.71
2022-10-23T13:43:57.014Z,995.72
2022-10-23T13:44:57.023Z,995.72
2022-10-23T13:45:57.039Z,995.73
2022-10-23T13:46:56.988Z,995.68
2022-10-23T13:47:57.005Z,995.67
2022-10-23T13:48:56.968Z,995.63
2022-10-23T13:49:56.965Z,995.63
2022-10-23T13:50:56.955Z,995.63
2022-10-23T13:51:56.924Z,995.60
2022-10-23T13:52:56.921Z,995.61
2022-10-23T13:53:56.905Z,995.60
2022-10-23T13:54:56.923Z,995.56
2022-10-23T13:55:58.715Z,995.59
2022-10-23T13:56:56.890Z,995.57
2022-10-23T13:57:56.864Z,995.52
2022-10-23T13:58:56.858Z,995.49
2022-10-23T13:59:56.856Z,995.45
2022-10-23T14:00:57.026Z,995.48
2022-10-23T14:01:56.918Z,995.48
2022-10-23T14:02:56.824Z,995.50
2022-10-23T14:03:56.804Z,995.47
2022-10-23T14:04:56.815Z,995.45
2022-10-23T14:05:56.785Z,995.43
2022-10-23T14:06:56.773Z,995.43
2022-10-23T14:07:56.759Z,995.40
2022-10-23T14:08:56.752Z,995.38
2022-10-23T14:09:56.753Z,995.37
2022-10-23T14:10:56.732Z,995.38
2022-10-23T14:11:56.716Z,995.39
2022-10-23T14:12:56.716Z,995.39
2022-10-23T14:13:56.695Z,995.39
2022-10-23T14:14:56.708Z,995.39
2022-10-23T14:15:56.677Z,995.36
2022-10-23T14:16:56.669Z,995.33
2022-10-23T14:17:59.135Z,995.30
2022-10-23T14:18:56.647Z,995.29
2022-10-23T14:19:56.641Z,995.28
2022-10-23T14:20:56.624Z,995.27
2022-10-23T14:21:56.607Z,995.25
2022-10-23T14:22:56.605Z,995.22
2022-10-23T14:23:56.594Z,995.20
2022-10-23T14:24:56.595Z,995.18
2022-10-23T14:25:56.564Z,995.19
2022-10-23T14:26:56.570Z,995.14
2022-10-23T14:27:56.605Z,995.11
2022-10-23T14:28:57.540Z,995.09
2022-10-23T14:29:56.540Z,995.05
2022-10-23T14:30:56.515Z,995.06
2022-10-23T14:31:56.502Z,995.06
2022-10-23T14:32:56.512Z,995.04
2022-10-23T14:33:56.489Z,995.03
2022-10-23T14:34:56.496Z,995.01
2022-10-23T14:35:56.463Z,995.01
2022-10-23T14:37:08.028Z,995.04
2022-10-23T14:37:56.459Z,995.07
2022-10-23T14:38:56.439Z,995.08
2022-10-23T14:39:56.419Z,995.07
2022-10-23T14:40:56.425Z,995.08
2022-10-23T14:41:56.395Z,995.07
2022-10-23T14:42:56.388Z,995.05
2022-10-23T14:43:56.400Z,995.04
2022-10-23T14:44:56.365Z,995.04
2022-10-23T14:45:56.364Z,995.04
2022-10-23T14:46:56.346Z,995.02
2022-10-23T14:47:56.333Z,994.99
2022-10-23T14:48:59.910Z,994.97
2022-10-23T14:49:56.316Z,994.95
2022-10-23T14:50:56.313Z,994.91
2022-10-23T14:51:56.292Z,994.85
2022-10-23T14:52:56.316Z,994.78
2022-10-23T14:53:58.738Z,994.78
2022-10-23T14:54:56.257Z,994.77
2022-10-23T14:55:56.260Z,994.76
2022-10-23T14:56:56.248Z,994.74
2022-10-23T14:57:56.218Z,994.73
2022-10-23T14:58:56.215Z,994.71
2022-10-23T14:59:56.200Z,994.66
2022-10-23T15:00:56.314Z,994.62
2022-10-23T15:01:56.178Z,994.56
2022-10-23T15:02:56.170Z,994.51
2022-10-23T15:03:56.166Z,994.52
2022-10-23T15:04:56.151Z,994.56
2022-10-23T15:05:56.143Z,994.57
2022-10-23T15:06:56.130Z,994.57
2022-10-23T15:07:56.119Z,994.54
2022-10-23T15:08:56.148Z,994.59
2022-10-23T15:09:56.089Z,994.62
2022-10-23T15:10:56.095Z,994.65
2022-10-23T15:11:56.068Z,994.66
2022-10-23T15:12:56.060Z,994.66
2022-10-23T15:13:56.047Z,994.68
2022-10-23T15:14:56.054Z,994.66
2022-10-23T15:15:56.039Z,994.64
2022-10-23T15:16:56.017Z,994.64
2022-10-23T15:17:56.008Z,994.61
2022-10-23T15:18:55.997Z,994.60
2022-10-23T15:19:55.981Z,994.62
2022-10-23T15:20:55.993Z,994.65
2022-10-23T15:21:55.961Z,994.66
2022-10-23T15:22:55.959Z,994.61
2022-10-23T15:23:55.938Z,994.52
2022-10-23T15:24:55.935Z,994.49
2022-10-23T15:25:55.927Z,994.47
2022-10-23T15:26:56.014Z,994.44
2022-10-23T15:27:55.923Z,994.41
2022-10-23T15:28:55.888Z,994.37
2022-10-23T15:29:55.876Z,994.34
2022-10-23T15:30:55.879Z,994.30
2022-10-23T15:31:55.852Z,994.28
2022-10-23T15:32:55.847Z,994.27
2022-10-23T15:33:55.846Z,994.28
2022-10-23T15:34:55.820Z,994.31
2022-10-23T15:35:55.818Z,994.32
2022-10-23T15:36:55.799Z,994.32
2022-10-23T15:37:55.784Z,994.33
2022-10-23T15:38:55.779Z,994.31
2022-10-23T15:39:58.342Z,994.29
2022-10-23T15:40:55.795Z,994.24
2022-10-23T15:41:55.739Z,994.22
2022-10-23T15:42:55.732Z,994.22
2022-10-23T15:43:55.719Z,994.22
2022-10-23T15:44:55.713Z,994.19
2022-10-23T15:45:55.696Z,994.18
2022-10-23T15:46:55.749Z,994.14
2022-10-23T15:47:55.675Z,994.12
2022-10-23T15:48:55.670Z,994.11
2022-10-23T15:49:55.658Z,994.05
2022-10-23T15:50:55.650Z,994.04
2022-10-23T15:51:55.745Z,994.05
2022-10-23T15:52:55.625Z,994.05
2022-10-23T15:53:55.617Z,994.04
2022-10-23T15:54:55.607Z,994.07
2022-10-23T15:55:55.597Z,994.07
2022-10-23T15:56:55.602Z,994.08
2022-10-23T15:57:55.577Z,994.06
2022-10-23T15:58:55.571Z,994.04
2022-10-23T15:59:55.560Z,994.01
2022-10-23T16:00:55.592Z,994.00
2022-10-23T16:01:55.906Z,993.99
2022-10-23T16:02:55.521Z,994.00
2022-10-23T16:03:55.522Z,994.01
2022-10-23T16:04:55.500Z,994.03
2022-10-23T16:05:55.493Z,994.02
2022-10-23T16:06:55.491Z,994.02
2022-10-23T16:07:55.473Z,994.02
2022-10-23T16:08:55.461Z,994.03
2022-10-23T16:09:55.453Z,994.08
2022-10-23T16:10:55.438Z,994.15
2022-10-23T16:11:55.449Z,994.25
2022-10-23T16:12:55.419Z,994.36
2022-10-23T16:13:55.412Z,994.44
2022-10-23T16:14:55.397Z,994.51
2022-10-23T16:15:55.398Z,994.51
2022-10-23T16:16:55.397Z,994.50
2022-10-23T16:17:55.381Z,994.52
2022-10-23T16:18:55.356Z,994.58
2022-10-23T16:19:55.354Z,994.69
2022-10-23T16:20:55.336Z,994.77
2022-10-23T16:21:55.344Z,994.74
2022-10-23T16:22:55.315Z,994.67
2022-10-23T16:23:55.308Z,994.61
2022-10-23T16:24:55.296Z,994.61
2022-10-23T16:25:55.304Z,994.68
2022-10-23T16:26:55.286Z,994.67
2022-10-23T16:27:55.271Z,994.64
2022-10-23T16:28:55.262Z,994.73
2022-10-23T16:29:55.257Z,994.81
2022-10-23T16:30:55.242Z,994.81
2022-10-23T16:31:55.238Z,994.80
2022-10-23T16:32:55.253Z,994.80
2022-10-23T16:33:55.256Z,994.82
2022-10-23T16:34:55.191Z,994.84
2022-10-23T16:35:55.183Z,994.85
2022-10-23T16:36:55.190Z,994.83
2022-10-23T16:37:55.170Z,994.84
2022-10-23T16:38:55.154Z,994.85
2022-10-23T16:39:55.147Z,994.90
2022-10-23T16:40:55.137Z,994.98
2022-10-23T16:41:55.139Z,995.00
2022-10-23T16:42:55.113Z,994.95
2022-10-23T16:43:55.112Z,994.92
2022-10-23T16:44:55.089Z,994.91
2022-10-23T16:45:55.089Z,994.89
2022-10-23T16:46:55.080Z,994.85
2022-10-23T16:47:55.069Z,994.82
2022-10-23T16:48:55.048Z,994.77
2022-10-23T16:49:55.047Z,994.76
2022-10-23T16:50:55.027Z,994.76
2022-10-23T16:51:55.032Z,994.79
2022-10-23T16:52:55.876Z,994.79
2022-10-23T16:53:55.004Z,994.75
2022-10-23T16:54:54.986Z,994.71
2022-10-23T16:55:54.982Z,994.67
2022-10-23T16:56:54.983Z,994.64
2022-10-23T16:57:54.962Z,994.65
2022-10-23T16:58:54.966Z,994.69
2022-10-23T16:59:54.942Z,994.75
2022-10-23T17:00:54.984Z,994.83
2022-10-23T17:01:55.051Z,994.87
2022-10-23T17:02:54.912Z,994.89
2022-10-23T17:03:54.905Z,994.90
2022-10-23T17:04:54.886Z,994.91
2022-10-23T17:05:57.372Z,994.93
2022-10-23T17:06:54.880Z,994.97
2022-10-23T17:07:54.859Z,995.04
2022-10-23T17:08:54.837Z,995.10